createdAt,value
2019-05-07T00:01:34.244Z,100357.03
2019-05-07T00:04:01.988Z,100361.34
2019-05-07T00:06:29.497Z,100365.33
2019-05-07T00:08:57.108Z,100357.66
2019-05-07T00:11:24.834Z,100357.31
2019-05-07T00:13:52.403Z,100354.97
2019-05-07T00:16:19.750Z,100362.59
2019-05-07T00:18:47.026Z,100365.52
2019-05-07T00:21:14.417Z,100364.31
2019-05-07T00:23:43.191Z,100364.87
2019-05-07T00:26:13.083Z,100366.66
2019-05-07T00:28:40.125Z,100358.57
2019-05-07T00:31:07.617Z,100361.38
2019-05-07T00:33:35.881Z,100361.66
2019-05-07T00:36:08.996Z,100360.14
2019-05-07T00:38:38.693Z,100368.20
2019-05-07T00:41:22.928Z,100360.74
2019-05-07T00:43:52.790Z,100367.08
2019-05-07T00:46:22.852Z,100359.37
2019-05-07T00:48:50.210Z,100362.50
2019-05-07T00:51:33.361Z,100362.06
2019-05-07T00:54:02.812Z,100356.94
2019-05-07T00:56:30.210Z,100357.61
2019-05-07T00:58:57.678Z,100359.50
2019-05-07T01:01:24.951Z,100281.00
2019-05-07T01:03:53.355Z,100354.00
2019-05-07T01:06:22.756Z,100248.91
2019-05-07T01:08:51.954Z,100343.16
2019-05-07T01:11:19.256Z,100345.69
2019-05-07T01:13:46.514Z,100342.09
2019-05-07T01:16:13.907Z,100343.77
2019-05-07T01:18:42.036Z,100352.89
2019-05-07T01:21:09.615Z,100343.77
2019-05-07T01:23:36.873Z,100350.53
2019-05-07T01:26:04.140Z,100351.88
2019-05-07T01:28:34.462Z,100351.53
2019-05-07T01:31:02.215Z,100356.99
2019-05-07T01:33:38.745Z,100360.21
2019-05-07T01:36:24.362Z,100368.90
2019-05-07T01:38:52.283Z,100363.45
2019-05-07T01:41:19.742Z,100365.63
2019-05-07T01:43:47.060Z,100368.92
2019-05-07T01:46:14.440Z,100375.02
2019-05-07T01:48:42.994Z,100375.09
2019-05-07T01:51:12.843Z,100370.05
2019-05-07T01:53:42.851Z,100370.30
2019-05-07T01:56:12.412Z,100367.36
2019-05-07T01:58:42.478Z,100363.59
2019-05-07T02:01:10.236Z,100371.34
2019-05-07T02:03:57.269Z,100371.16
2019-05-07T02:06:48.156Z,100368.77
2019-05-07T02:09:38.268Z,100375.63
2019-05-07T02:12:24.043Z,100384.59
2019-05-07T02:14:53.306Z,100376.13
2019-05-07T02:17:22.799Z,100380.91
2019-05-07T02:19:52.630Z,100374.56
2019-05-07T02:22:23.552Z,100382.83
2019-05-07T02:24:52.386Z,100385.46
2019-05-07T04:45:04.923Z,100387.12
2019-05-07T04:47:42.075Z,100284.63
2019-05-07T04:50:03.760Z,100399.30
2019-05-07T04:52:35.160Z,100403.86
2019-05-07T04:55:04.070Z,100396.54
2019-05-07T04:57:33.129Z,100398.41
2019-05-07T05:00:03.471Z,100403.83
2019-05-07T05:02:43.592Z,100395.95
2019-05-07T05:05:13.181Z,100385.39
2019-05-07T05:07:42.875Z,100396.06
2019-05-07T05:10:10.100Z,100392.29
2019-05-07T05:12:37.412Z,100385.89
2019-05-07T05:15:04.917Z,100281.11
2019-05-07T05:17:46.786Z,100383.74
2019-05-07T05:20:03.632Z,100379.83
2019-05-07T05:22:53.090Z,100380.84
2019-05-07T05:25:27.755Z,100384.70
2019-05-07T05:27:55.124Z,100385.00
2019-05-07T05:30:38.101Z,100391.45
2019-05-07T05:33:05.613Z,100389.10
2019-05-07T05:35:32.885Z,100394.00
2019-05-07T05:38:00.170Z,100391.75
2019-05-07T05:40:29.208Z,100392.12
2019-05-07T05:43:06.262Z,100396.24
2019-05-07T05:45:34.505Z,100385.93
2019-05-07T05:48:07.455Z,100388.21
2019-05-07T05:50:38.030Z,100388.60
2019-05-07T05:53:15.012Z,100383.46
2019-05-07T05:55:42.867Z,100379.61
2019-05-07T05:58:24.270Z,100383.12
2019-05-07T06:01:17.432Z,100388.03
2019-05-07T06:04:13.112Z,100382.45
2019-05-07T06:07:01.132Z,100385.22
2019-05-07T06:09:29.224Z,100382.13
2019-05-07T06:12:07.571Z,100387.11
2019-05-07T06:14:39.105Z,100390.42
2019-05-07T06:17:37.768Z,100384.59
2019-05-07T06:20:34.151Z,100392.88
2019-05-07T06:23:22.296Z,100385.01
2019-05-07T06:25:49.030Z,100389.00
2019-05-07T06:28:16.277Z,100388.88
2019-05-07T06:30:43.543Z,100392.13
2019-05-07T06:33:12.399Z,100392.70
2019-05-07T06:35:39.890Z,100386.22
2019-05-07T06:38:08.749Z,100384.38
2019-05-07T06:40:45.641Z,100391.63
2019-05-07T06:43:44.768Z,100382.91
2019-05-07T06:46:12.622Z,100385.86
2019-05-07T06:48:43.672Z,100387.02
2019-05-07T06:51:09.570Z,100385.80
2019-05-07T06:53:36.823Z,100390.81
2019-05-07T06:56:04.235Z,100386.35
2019-05-07T06:58:41.874Z,100392.42
2019-05-07T07:01:17.415Z,100388.73
2019-05-07T07:04:19.377Z,100390.94
2019-05-07T07:07:22.474Z,100395.95
2019-05-07T07:09:51.930Z,100394.16
2019-05-07T07:12:25.545Z,100390.11
2019-05-07T07:14:51.817Z,100385.27
2019-05-07T07:17:22.163Z,100384.89
2019-05-07T07:19:49.406Z,100384.21
2019-05-07T07:22:16.815Z,100381.97
2019-05-07T07:24:44.146Z,100370.05
2019-05-07T07:27:13.214Z,100368.75
2019-05-07T07:29:47.367Z,100365.03
2019-05-07T07:32:16.579Z,100364.00
2019-05-07T07:34:47.286Z,100367.95
2019-05-07T07:37:26.775Z,100371.93
2019-05-07T07:40:12.853Z,100370.42
2019-05-07T07:42:42.540Z,100371.41
2019-05-07T07:45:16.765Z,100376.70
2019-05-07T07:47:44.723Z,100375.80
2019-05-07T07:50:12.965Z,100378.81
2019-05-07T07:52:42.046Z,100354.26
2019-05-07T07:55:12.636Z,100374.91
2019-05-07T07:57:55.562Z,100366.06
2019-05-07T08:00:32.873Z,100371.88
2019-05-07T08:03:03.032Z,100375.66
2019-05-07T08:05:32.534Z,100366.03
2019-05-07T08:08:02.148Z,100369.04
2019-05-07T08:10:29.131Z,100358.87
2019-05-07T08:12:56.406Z,100364.09
2019-05-07T08:15:24.747Z,100372.02
2019-05-07T08:17:52.288Z,100368.55
2019-05-07T08:20:22.052Z,100365.03
2019-05-07T08:22:48.861Z,100325.70
2019-05-07T08:25:16.179Z,100361.03
2019-05-07T08:27:43.477Z,100350.97
2019-05-07T08:30:14.011Z,100362.96
2019-05-07T08:32:55.354Z,100357.96
2019-05-07T08:35:42.189Z,100362.77
2019-05-07T08:38:09.493Z,100353.26
2019-05-07T08:40:38.201Z,100345.67
2019-05-07T08:43:06.231Z,100345.32
2019-05-07T08:45:53.106Z,100343.56
2019-05-07T08:48:25.409Z,100337.31
2019-05-07T08:50:52.849Z,100343.30
2019-05-07T08:53:22.361Z,100346.24
2019-05-07T08:55:49.566Z,100347.28
2019-05-07T08:58:16.978Z,100343.33
2019-05-07T09:00:45.265Z,100343.23
2019-05-07T09:03:22.083Z,100342.28
2019-05-07T09:05:45.509Z,100342.43
2019-05-07T09:08:12.950Z,100331.59
2019-05-07T09:10:42.205Z,100322.78
2019-05-07T09:13:09.467Z,100321.48
2019-05-07T09:15:37.308Z,100329.55
2019-05-07T09:18:04.554Z,100330.56
2019-05-07T09:20:32.257Z,100324.80
2019-05-07T09:23:02.020Z,100322.95
2019-05-07T09:25:29.062Z,100321.77
2019-05-07T09:27:56.537Z,100322.78
2019-05-07T09:30:46.408Z,100311.56
2019-05-07T09:33:24.196Z,100319.16
2019-05-07T09:35:53.159Z,100321.48
2019-05-07T09:38:22.307Z,100311.36
2019-05-07T09:40:49.858Z,100272.81
2019-05-07T09:43:17.227Z,100303.69
2019-05-07T09:45:44.654Z,100298.52
2019-05-07T09:48:12.178Z,100306.05
2019-05-07T09:50:40.198Z,100300.78
2019-05-07T09:53:07.590Z,100299.48
2019-05-07T09:55:34.834Z,100303.84
2019-05-07T09:58:02.226Z,100307.92
2019-05-07T10:00:31.815Z,100308.45
2019-05-07T10:02:59.066Z,100313.03
2019-05-07T10:05:26.349Z,100310.32
2019-05-07T10:07:53.568Z,100310.15
2019-05-07T10:10:22.281Z,100308.88
2019-05-07T10:13:01.712Z,100306.05
2019-05-07T10:15:28.912Z,100302.38
2019-05-07T10:18:08.100Z,100299.98
2019-05-07T10:20:35.374Z,100295.02
2019-05-07T10:23:02.780Z,100292.42
2019-05-07T10:25:37.457Z,100288.60
2019-05-07T10:28:04.883Z,100292.42
2019-05-07T10:30:32.266Z,100296.39
2019-05-07T10:33:01.652Z,100287.17
2019-05-07T10:35:31.090Z,100295.27
2019-05-07T10:37:57.906Z,100292.18
2019-05-07T10:40:25.606Z,100296.92
2019-05-07T10:42:52.923Z,100294.28
2019-05-07T10:45:37.094Z,100293.64
2019-05-07T10:48:12.304Z,100284.52
2019-05-07T10:50:42.533Z,100288.16
2019-05-07T10:53:09.918Z,100282.03
2019-05-07T10:55:37.424Z,100284.52
2019-05-07T10:58:04.910Z,100269.23
2019-05-07T11:00:39.095Z,100274.03
2019-05-07T11:03:08.703Z,100275.80
2019-05-07T11:05:37.063Z,100270.00
2019-05-07T11:08:05.441Z,100275.52
2019-05-07T11:10:34.675Z,100266.45
2019-05-07T11:13:02.544Z,100267.52
2019-05-07T11:15:32.763Z,100261.89
2019-05-07T11:18:13.940Z,100255.43
2019-05-07T11:20:49.324Z,100262.38
2019-05-07T11:23:11.308Z,100255.20
2019-05-07T11:25:38.583Z,100244.63
2019-05-07T11:28:05.932Z,100244.16
2019-05-07T11:30:33.234Z,100245.43
2019-05-07T11:33:02.488Z,100239.10
2019-05-07T11:35:31.714Z,100239.17
2019-05-07T11:37:59.068Z,100233.50
2019-05-07T11:40:26.436Z,100232.45
2019-05-07T11:43:16.249Z,100220.28
2019-05-07T11:46:06.233Z,100219.91
2019-05-07T11:48:36.527Z,100214.17
2019-05-07T11:51:26.408Z,100215.97
2019-05-07T11:54:13.446Z,100207.27
2019-05-07T11:56:42.254Z,100211.14
2019-05-07T11:59:09.947Z,100207.98
2019-05-07T12:01:46.680Z,100201.23
2019-05-07T12:04:08.879Z,100205.72
2019-05-07T12:06:36.361Z,100198.70
2019-05-07T12:09:06.339Z,100196.92
2019-05-07T12:11:34.010Z,100192.19
2019-05-07T12:14:01.998Z,100182.03
2019-05-07T12:16:31.874Z,100167.34
2019-05-07T12:18:59.055Z,100184.80
2019-05-07T12:21:26.378Z,100183.66
2019-05-07T12:23:53.631Z,100171.96
2019-05-07T12:26:22.246Z,100173.46
2019-05-07T12:28:49.705Z,100155.00
2019-05-07T12:31:39.285Z,100157.62
2019-05-07T12:34:19.401Z,100145.26
2019-05-07T12:36:47.108Z,100127.70
2019-05-07T12:39:14.462Z,100153.44
2019-05-07T12:41:43.043Z,100156.94
2019-05-07T12:44:12.771Z,100160.44
2019-05-07T12:46:42.094Z,100162.48
2019-05-07T12:49:09.175Z,100152.83
2019-05-07T12:52:02.376Z,100148.83
2019-05-07T12:54:37.551Z,100027.77
2019-05-07T12:57:04.920Z,100152.45
2019-05-07T12:59:32.358Z,100148.68
2019-05-07T13:02:37.292Z,100116.38
2019-05-07T13:04:54.739Z,100143.28
2019-05-07T13:07:41.793Z,100135.80
2019-05-07T13:10:09.477Z,100135.31
2019-05-07T13:12:36.816Z,100128.34
2019-05-07T13:15:05.382Z,100126.27
2019-05-07T13:17:33.874Z,100129.84
2019-05-07T13:20:03.777Z,100131.34
2019-05-07T13:22:32.587Z,100121.45
2019-05-07T13:25:02.154Z,100118.26
2019-05-07T13:27:31.869Z,100111.83
2019-05-07T13:29:59.141Z,100105.88
2019-05-07T13:32:26.755Z,100125.63
2019-05-07T13:34:55.265Z,100110.50
2019-05-07T13:37:26.218Z,100107.55
2019-05-07T13:39:58.365Z,100099.25
2019-05-07T13:42:34.299Z,100099.53
2019-05-07T13:45:31.797Z,100103.22
2019-05-07T13:48:11.988Z,100100.31
2019-05-07T13:50:39.219Z,100094.77
2019-05-07T13:53:06.747Z,100097.77
2019-05-07T13:55:34.140Z,100089.59
2019-05-07T13:58:01.610Z,100095.90
2019-05-07T14:00:34.448Z,100094.03
2019-05-07T14:03:03.261Z,100092.66
2019-05-07T14:05:32.360Z,100070.02
2019-05-07T14:07:59.845Z,100089.58
2019-05-07T14:10:27.507Z,100081.34
2019-05-07T14:13:07.618Z,100086.46
2019-05-07T14:15:24.241Z,100077.63
2019-05-07T14:17:52.646Z,100063.84
2019-05-07T14:20:22.199Z,100066.96
2019-05-07T14:22:51.708Z,100061.74
2019-05-07T14:25:21.850Z,100059.27
2019-05-07T14:27:49.662Z,100060.57
2019-05-07T14:30:18.219Z,100051.34
2019-05-07T14:32:58.922Z,100050.16
2019-05-07T14:35:53.835Z,100047.95
2019-05-07T14:38:25.401Z,100052.94
2019-05-07T14:40:52.857Z,100053.36
2019-05-07T14:43:42.620Z,100050.30
2019-05-07T14:46:11.955Z,100053.80
2019-05-07T14:48:41.923Z,100048.20
2019-05-07T14:51:08.662Z,100055.69
2019-05-07T14:53:35.942Z,100051.66
2019-05-07T14:56:04.663Z,100048.86
2019-05-07T14:58:32.104Z,100047.95
2019-05-07T15:00:59.477Z,100056.48
2019-05-07T15:03:26.937Z,100055.85
2019-05-07T15:05:54.578Z,100058.31
2019-05-07T15:08:22.123Z,100051.95
2019-05-07T15:10:49.420Z,100055.96
2019-05-07T15:13:18.511Z,100051.80
2019-05-07T15:15:46.506Z,100051.05
2019-05-07T15:18:22.981Z,100049.11
2019-05-07T15:20:52.396Z,100052.16
2019-05-07T15:23:27.078Z,100046.92
2019-05-07T15:25:54.402Z,100049.99
2019-05-07T15:28:22.800Z,100052.16
2019-05-07T15:30:59.251Z,100044.46
2019-05-07T15:33:26.634Z,100042.69
2019-05-07T15:35:54.142Z,100043.84
2019-05-07T15:38:22.352Z,100046.11
2019-05-07T15:40:51.868Z,100040.01
2019-05-07T15:43:19.782Z,100041.30
2019-05-07T15:45:47.078Z,100038.80
2019-05-07T15:48:14.442Z,100034.00
2019-05-07T15:50:42.871Z,100038.69
2019-05-07T15:53:48.511Z,100037.26
2019-05-07T15:56:15.949Z,100032.89
2019-05-07T15:58:44.252Z,100029.31
2019-05-07T16:01:12.865Z,100025.49
2019-05-07T16:03:42.952Z,100022.48
2019-05-07T16:06:12.639Z,100017.08
2019-05-07T16:08:51.462Z,100018.88
2019-05-07T16:11:18.757Z,99983.48
2019-05-07T16:13:55.209Z,100007.78
2019-05-07T16:16:23.582Z,100020.08
2019-05-07T16:19:07.339Z,100010.50
2019-05-07T16:21:34.685Z,100008.33
2019-05-07T16:24:04.138Z,100010.41
2019-05-07T16:26:32.669Z,100004.46
2019-05-07T16:29:04.382Z,100000.25
2019-05-07T16:31:29.902Z,100002.36
2019-05-07T16:33:57.282Z,100004.09
2019-05-07T16:36:24.580Z,100001.72
2019-05-07T16:38:52.695Z,100002.74
2019-05-07T16:41:22.279Z,99994.41
2019-05-07T16:43:49.682Z,99987.46
2019-05-07T16:46:16.986Z,99995.80
2019-05-07T16:48:44.711Z,99990.03
2019-05-07T16:51:12.864Z,99983.61
2019-05-07T16:53:42.139Z,99984.13
2019-05-07T16:56:09.598Z,99956.03
2019-05-07T16:58:53.706Z,99982.31
2019-05-07T17:01:22.232Z,99989.00
2019-05-07T17:03:54.468Z,99986.94
2019-05-07T17:06:24.741Z,99986.67
2019-05-07T17:09:00.088Z,99985.13
2019-05-07T17:11:27.535Z,99994.70
2019-05-07T17:13:54.845Z,99989.61
2019-05-07T17:16:22.834Z,99985.45
2019-05-07T17:18:51.838Z,99978.27
2019-05-07T17:21:21.635Z,99987.91
2019-05-07T17:23:48.669Z,99984.95
2019-05-07T17:26:16.013Z,99983.00
2019-05-07T17:28:43.335Z,99980.90
2019-05-07T17:31:12.392Z,99980.95
2019-05-07T17:33:39.897Z,99973.67
2019-05-07T17:36:07.226Z,99974.66
2019-05-07T17:38:34.611Z,99977.76
2019-05-07T17:41:10.880Z,99978.73
2019-05-07T17:43:32.519Z,99982.06
2019-05-07T17:46:00.051Z,99979.56
2019-05-07T17:48:27.322Z,99967.59
2019-05-07T17:51:23.417Z,99973.72
2019-05-07T17:53:59.699Z,99973.77
2019-05-07T17:56:22.379Z,99964.45
2019-05-07T17:58:52.049Z,99973.48
2019-05-07T18:01:24.465Z,99969.00
2019-05-07T18:03:52.136Z,99963.23
2019-05-07T18:06:19.910Z,99961.59
2019-05-07T18:08:47.339Z,99959.97
2019-05-07T18:11:20.890Z,99955.01
2019-05-07T18:13:45.136Z,99955.59
2019-05-07T18:16:33.672Z,99951.11
2019-05-07T18:19:02.086Z,99954.54
2019-05-07T18:21:32.548Z,99948.83
2019-05-07T18:24:12.728Z,99955.56
2019-05-07T18:26:31.492Z,99953.89
2019-05-07T18:28:59.252Z,99950.89
2019-05-07T18:31:44.648Z,99948.68
2019-05-07T18:34:12.869Z,99944.55
2019-05-07T18:36:42.232Z,99952.83
2019-05-07T18:39:10.269Z,99953.80
2019-05-07T18:41:37.855Z,99945.19
2019-05-07T18:44:12.415Z,99946.41
2019-05-07T18:46:34.548Z,99948.61
2019-05-07T18:49:03.410Z,99944.68
2019-05-07T18:51:32.193Z,99944.91
2019-05-07T18:53:59.848Z,99948.80
2019-05-07T18:56:28.938Z,99947.05
2019-05-07T18:58:56.356Z,99943.69
2019-05-07T19:01:25.544Z,99944.05
2019-05-07T19:03:53.672Z,99940.68
2019-05-07T19:06:22.272Z,99945.73
2019-05-07T19:08:49.806Z,99945.98
2019-05-07T19:11:17.291Z,99943.73
2019-05-07T19:13:44.800Z,99953.98
2019-05-07T19:16:12.783Z,99951.34
2019-05-07T19:18:42.852Z,99949.70
2019-05-07T19:21:09.607Z,99954.59
2019-05-07T19:23:37.046Z,99953.48
2019-05-07T19:26:04.446Z,99956.98
2019-05-07T19:28:32.938Z,99951.01
2019-05-07T19:31:00.385Z,99946.88
2019-05-07T19:33:27.804Z,99917.37
2019-05-07T19:35:55.097Z,99950.86
2019-05-07T19:38:22.524Z,99954.69
2019-05-07T19:40:49.903Z,99955.34
2019-05-07T19:43:17.179Z,99950.34
2019-05-07T19:45:44.558Z,99950.36
2019-05-07T19:48:13.007Z,99942.84
2019-05-07T19:50:41.997Z,99945.41
2019-05-07T19:53:09.609Z,99936.08
2019-05-07T19:55:56.466Z,99937.70
2019-05-07T19:58:23.822Z,99934.96
2019-05-07T20:00:56.884Z,99933.22
2019-05-07T20:03:22.317Z,99933.09
2019-05-07T20:05:49.657Z,99933.05
2019-05-07T20:08:17.056Z,99933.69
2019-05-07T20:10:51.954Z,99929.72
2019-05-07T20:13:19.351Z,99925.34
2019-05-07T20:15:52.110Z,99924.87
2019-05-07T20:18:21.924Z,99922.35
2019-05-07T20:20:49.162Z,99926.89
2019-05-07T20:23:16.445Z,99929.86
2019-05-07T20:25:43.754Z,99931.11
2019-05-07T20:28:12.711Z,99932.67
2019-05-07T20:30:41.799Z,99931.42
2019-05-07T20:33:09.234Z,99933.09
2019-05-07T20:35:39.362Z,99925.23
2019-05-07T20:38:05.907Z,99920.65
2019-05-07T20:40:33.200Z,99923.31
2019-05-07T20:43:01.911Z,99928.77
2019-05-07T20:45:31.816Z,99920.78
2019-05-07T20:47:58.753Z,99920.59
2019-05-07T20:50:26.051Z,99917.89
2019-05-07T20:52:53.372Z,99919.22
2019-05-07T20:55:35.792Z,99917.23
2019-05-07T20:58:03.322Z,99914.97
2019-05-07T21:00:32.573Z,99903.68
2019-05-07T21:03:19.029Z,99903.06
2019-05-07T21:05:46.922Z,99906.00
2019-05-07T21:08:14.223Z,99896.64
2019-05-07T21:10:42.812Z,99901.27
2019-05-07T21:13:26.192Z,99894.83
2019-05-07T21:15:41.765Z,99891.83
2019-05-07T21:18:08.960Z,99886.41
2019-05-07T21:20:36.379Z,99882.43
2019-05-07T21:23:04.022Z,99882.91
2019-05-07T21:25:42.233Z,99877.39
2019-05-07T21:28:02.087Z,99870.60
2019-05-07T21:30:29.494Z,99870.84
2019-05-07T21:32:56.795Z,99862.81
2019-05-07T21:35:24.167Z,99856.91
2019-05-07T21:37:52.394Z,99856.52
2019-05-07T21:40:19.783Z,99854.47
2019-05-07T21:42:47.102Z,99844.79
2019-05-07T21:45:14.474Z,99838.77
2019-05-07T21:47:41.739Z,99831.12
2019-05-07T21:50:09.184Z,99839.10
2019-05-07T21:52:39.509Z,99831.86
2019-05-07T21:55:14.642Z,99832.69
2019-05-07T21:57:54.604Z,99825.55
2019-05-07T22:00:38.246Z,99833.23
2019-05-07T22:03:12.508Z,99839.56
2019-05-07T22:05:44.103Z,99827.72
2019-05-07T22:08:12.378Z,99831.32
2019-05-07T22:10:39.805Z,99831.37
2019-05-07T22:13:07.120Z,99831.18
2019-05-07T22:15:34.464Z,99833.89
2019-05-07T22:18:02.690Z,99829.88
2019-05-07T22:20:31.970Z,99834.81
2019-05-07T22:22:59.527Z,99831.42
2019-05-07T22:25:26.905Z,99828.31
2019-05-07T22:27:57.603Z,99827.07
2019-05-07T22:30:34.238Z,99826.50
2019-05-07T22:33:09.348Z,99816.53
2019-05-07T22:35:39.928Z,99820.81
2019-05-07T22:38:32.387Z,99810.20
2019-05-07T22:41:02.953Z,99809.67
2019-05-07T22:43:34.339Z,99806.01
2019-05-07T22:46:12.466Z,99798.79
2019-05-07T22:48:41.858Z,99806.08
2019-05-07T22:51:13.833Z,99797.89
2019-05-07T22:53:41.425Z,99805.66
2019-05-07T22:56:14.104Z,99788.70
2019-05-07T22:58:47.233Z,99780.58
2019-05-07T23:01:17.968Z,99788.98
2019-05-07T23:03:53.965Z,99781.30
2019-05-07T23:06:24.425Z,99780.25
2019-05-07T23:08:53.596Z,99773.13
2019-05-07T23:11:22.909Z,99773.09
2019-05-07T23:13:54.761Z,99762.73
2019-05-07T23:16:27.387Z,99755.45
2019-05-07T23:18:55.235Z,99755.52
2019-05-07T23:21:33.119Z,99755.81
2019-05-07T23:24:17.734Z,99746.05
2019-05-07T23:26:50.286Z,99748.40
2019-05-07T23:29:28.034Z,99740.42
2019-05-07T23:32:01.929Z,99729.45
2019-05-07T23:34:54.597Z,99725.63
2019-05-07T23:41:26.573Z,99584.46
